sensor_id;sensor_type;location;lat;lon;timestamp;P1;durP1;ratioP1;P2;durP2;ratioP2
64712;SDS011;51140;45.340;5.980;2023-06-10T00:01:53;9.13;;;5.10;;
64712;SDS011;51140;45.340;5.980;2023-06-10T00:04:23;8.25;;;4.97;;
64712;SDS011;51140;45.340;5.980;2023-06-10T00:06:48;7.70;;;4.45;;
64712;SDS011;51140;45.340;5.980;2023-06-10T00:09:14;10.10;;;5.20;;
64712;SDS011;51140;45.340;5.980;2023-06-10T00:11:40;10.00;;;6.28;;
64712;SDS011;51140;45.340;5.980;2023-06-10T00:14:06;12.27;;;6.43;;
64712;SDS011;51140;45.340;5.980;2023-06-10T00:16:32;12.45;;;6.43;;
64712;SDS011;51140;45.340;5.980;2023-06-10T00:18:59;12.50;;;6.80;;
64712;SDS011;51140;45.340;5.980;2023-06-10T00:21:28;12.25;;;6.85;;
64712;SDS011;51140;45.340;5.980;2023-06-10T00:24:05;11.18;;;6.57;;
64712;SDS011;51140;45.340;5.980;2023-06-10T00:26:32;12.77;;;7.35;;
64712;SDS011;51140;45.340;5.980;2023-06-10T00:28:58;10.27;;;6.25;;
64712;SDS011;51140;45.340;5.980;2023-06-10T00:31:24;13.75;;;6.50;;
64712;SDS011;51140;45.340;5.980;2023-06-10T00:33:51;9.85;;;6.47;;
64712;SDS011;51140;45.340;5.980;2023-06-10T00:36:17;11.50;;;5.88;;
64712;SDS011;51140;45.340;5.980;2023-06-10T00:38:42;9.77;;;6.28;;
64712;SDS011;51140;45.340;5.980;2023-06-10T00:41:07;12.95;;;7.13;;
64712;SDS011;51140;45.340;5.980;2023-06-10T00:43:33;12.25;;;7.38;;
64712;SDS011;51140;45.340;5.980;2023-06-10T00:45:58;15.32;;;6.82;;
64712;SDS011;51140;45.340;5.980;2023-06-10T00:48:24;11.43;;;7.25;;
64712;SDS011;51140;45.340;5.980;2023-06-10T00:50:50;15.13;;;7.78;;
64712;SDS011;51140;45.340;5.980;2023-06-10T00:53:16;12.80;;;6.65;;
64712;SDS011;51140;45.340;5.980;2023-06-10T00:55:42;12.30;;;6.78;;
64712;SDS011;51140;45.340;5.980;2023-06-10T00:58:07;9.63;;;5.50;;
64712;SDS011;51140;45.340;5.980;2023-06-10T01:00:34;11.77;;;5.97;;
64712;SDS011;51140;45.340;5.980;2023-06-10T01:02:59;11.30;;;6.03;;
64712;SDS011;51140;45.340;5.980;2023-06-10T01:05:24;11.93;;;6.38;;
64712;SDS011;51140;45.340;5.980;2023-06-10T01:07:52;8.50;;;4.93;;
64712;SDS011;51140;45.340;5.980;2023-06-10T01:15:33;10.65;;;5.60;;
64712;SDS011;51140;45.340;5.980;2023-06-10T01:20:27;9.02;;;5.53;;
64712;SDS011;51140;45.340;5.980;2023-06-10T01:22:56;13.57;;;6.43;;
64712;SDS011;51140;45.340;5.980;2023-06-10T01:25:23;14.15;;;6.32;;
64712;SDS011;51140;45.340;5.980;2023-06-10T01:27:54;12.73;;;5.35;;
64712;SDS011;51140;45.340;5.980;2023-06-10T01:33:33;9.20;;;4.70;;
64712;SDS011;51140;45.340;5.980;2023-06-10T01:36:01;9.70;;;5.47;;
64712;SDS011;51140;45.340;5.980;2023-06-10T01:38:29;9.93;;;5.28;;
64712;SDS011;51140;45.340;5.980;2023-06-10T01:40:58;9.93;;;5.50;;
64712;SDS011;51140;45.340;5.980;2023-06-10T01:43:24;10.05;;;5.85;;
64712;SDS011;51140;45.340;5.980;2023-06-10T01:45:50;13.68;;;5.95;;
64712;SDS011;51140;45.340;5.980;2023-06-10T01:48:16;9.65;;;5.43;;
64712;SDS011;51140;45.340;5.980;2023-06-10T01:50:41;11.18;;;5.07;;
64712;SDS011;51140;45.340;5.980;2023-06-10T01:53:06;10.45;;;5.70;;
64712;SDS011;51140;45.340;5.980;2023-06-10T01:55:32;10.95;;;5.80;;
64712;SDS011;51140;45.340;5.980;2023-06-10T01:57:57;10.93;;;5.47;;
64712;SDS011;51140;45.340;5.980;2023-06-10T02:00:22;12.40;;;5.55;;
64712;SDS011;51140;45.340;5.980;2023-06-10T02:02:48;12.82;;;6.95;;
64712;SDS011;51140;45.340;5.980;2023-06-10T02:05:13;13.05;;;6.63;;
64712;SDS011;51140;45.340;5.980;2023-06-10T02:07:39;11.80;;;6.47;;
64712;SDS011;51140;45.340;5.980;2023-06-10T02:10:06;14.35;;;7.43;;
64712;SDS011;51140;45.340;5.980;2023-06-10T02:12:32;15.93;;;7.35;;
64712;SDS011;51140;45.340;5.980;2023-06-10T02:14:57;10.57;;;7.18;;
64712;SDS011;51140;45.340;5.980;2023-06-10T02:17:22;10.57;;;6.63;;
64712;SDS011;51140;45.340;5.980;2023-06-10T02:19:48;13.95;;;7.53;;
64712;SDS011;51140;45.340;5.980;2023-06-10T02:22:20;11.60;;;7.05;;
64712;SDS011;51140;45.340;5.980;2023-06-10T02:24:46;11.68;;;6.93;;
64712;SDS011;51140;45.340;5.980;2023-06-10T02:27:11;11.15;;;6.80;;
64712;SDS011;51140;45.340;5.980;2023-06-10T02:29:37;11.88;;;6.38;;
64712;SDS011;51140;45.340;5.980;2023-06-10T02:32:02;12.48;;;5.75;;
64712;SDS011;51140;45.340;5.980;2023-06-10T02:34:28;11.60;;;6.10;;
64712;SDS011;51140;45.340;5.980;2023-06-10T02:36:54;10.68;;;5.97;;
64712;SDS011;51140;45.340;5.980;2023-06-10T02:39:19;10.75;;;5.65;;
64712;SDS011;51140;45.340;5.980;2023-06-10T02:41:45;12.30;;;6.00;;
64712;SDS011;51140;45.340;5.980;2023-06-10T02:44:11;11.32;;;6.38;;
64712;SDS011;51140;45.340;5.980;2023-06-10T02:46:36;9.40;;;5.93;;
64712;SDS011;51140;45.340;5.980;2023-06-10T02:49:01;10.65;;;5.60;;
64712;SDS011;51140;45.340;5.980;2023-06-10T02:51:27;10.63;;;6.05;;
64712;SDS011;51140;45.340;5.980;2023-06-10T02:53:52;13.05;;;6.05;;
64712;SDS011;51140;45.340;5.980;2023-06-10T02:56:18;10.35;;;5.80;;
64712;SDS011;51140;45.340;5.980;2023-06-10T02:58:44;11.27;;;5.80;;
64712;SDS011;51140;45.340;5.980;2023-06-10T03:01:09;11.18;;;6.13;;
64712;SDS011;51140;45.340;5.980;2023-06-10T03:03:35;11.48;;;6.22;;
64712;SDS011;51140;45.340;5.980;2023-06-10T03:06:01;15.65;;;6.13;;
64712;SDS011;51140;45.340;5.980;2023-06-10T03:08:27;14.15;;;5.85;;
64712;SDS011;51140;45.340;5.980;2023-06-10T03:10:53;10.68;;;5.53;;
64712;SDS011;51140;45.340;5.980;2023-06-10T03:13:19;12.95;;;5.57;;
64712;SDS011;51140;45.340;5.980;2023-06-10T03:15:44;12.63;;;5.63;;
64712;SDS011;51140;45.340;5.980;2023-06-10T03:18:11;9.70;;;5.53;;
64712;SDS011;51140;45.340;5.980;2023-06-10T03:20:36;11.60;;;6.38;;
64712;SDS011;51140;45.340;5.980;2023-06-10T03:23:03;10.48;;;5.72;;
64712;SDS011;51140;45.340;5.980;2023-06-10T03:25:31;13.85;;;5.20;;
64712;SDS011;51140;45.340;5.980;2023-06-10T03:27:57;11.77;;;5.88;;
64712;SDS011;51140;45.340;5.980;2023-06-10T03:30:22;9.57;;;5.68;;
64712;SDS011;51140;45.340;5.980;2023-06-10T03:32:48;10.48;;;6.05;;
64712;SDS011;51140;45.340;5.980;2023-06-10T03:35:14;10.43;;;5.97;;
64712;SDS011;51140;45.340;5.980;2023-06-10T03:37:40;14.75;;;6.55;;
64712;SDS011;51140;45.340;5.980;2023-06-10T03:40:05;12.60;;;6.15;;
64712;SDS011;51140;45.340;5.980;2023-06-10T03:42:33;15.75;;;6.75;;
64712;SDS011;51140;45.340;5.980;2023-06-10T03:44:58;11.98;;;5.72;;
64712;SDS011;51140;45.340;5.980;2023-06-10T03:47:24;12.55;;;6.18;;
64712;SDS011;51140;45.340;5.980;2023-06-10T03:49:49;21.33;;;6.47;;
64712;SDS011;51140;45.340;5.980;2023-06-10T03:52:15;11.40;;;5.95;;
64712;SDS011;51140;45.340;5.980;2023-06-10T03:54:40;9.68;;;6.20;;
64712;SDS011;51140;45.340;5.980;2023-06-10T03:57:05;11.20;;;6.25;;
64712;SDS011;51140;45.340;5.980;2023-06-10T03:59:31;12.57;;;6.15;;
64712;SDS011;51140;45.340;5.980;2023-06-10T04:01:56;11.75;;;6.05;;
64712;SDS011;51140;45.340;5.980;2023-06-10T04:04:22;11.95;;;5.57;;
64712;SDS011;51140;45.340;5.980;2023-06-10T04:06:48;10.25;;;5.85;;
64712;SDS011;51140;45.340;5.980;2023-06-10T04:09:14;11.93;;;6.18;;
64712;SDS011;51140;45.340;5.980;2023-06-10T04:11:41;14.02;;;6.50;;
64712;SDS011;51140;45.340;5.980;2023-06-10T04:14:07;14.13;;;5.97;;
64712;SDS011;51140;45.340;5.980;2023-06-10T04:16:33;8.70;;;5.35;;
64712;SDS011;51140;45.340;5.980;2023-06-10T04:18:59;11.90;;;6.68;;
64712;SDS011;51140;45.340;5.980;2023-06-10T04:21:25;11.63;;;5.72;;
64712;SDS011;51140;45.340;5.980;2023-06-10T04:23:51;11.77;;;6.30;;
64712;SDS011;51140;45.340;5.980;2023-06-10T04:26:16;13.75;;;6.97;;
64712;SDS011;51140;45.340;5.980;2023-06-10T04:28:43;10.70;;;6.20;;
64712;SDS011;51140;45.340;5.980;2023-06-10T04:31:08;13.18;;;6.63;;
64712;SDS011;51140;45.340;5.980;2023-06-10T04:33:35;10.88;;;7.20;;
64712;SDS011;51140;45.340;5.980;2023-06-10T04:36:00;14.75;;;8.02;;
64712;SDS011;51140;45.340;5.980;2023-06-10T04:38:26;14.05;;;7.35;;
64712;SDS011;51140;45.340;5.980;2023-06-10T04:40:51;13.88;;;7.25;;
64712;SDS011;51140;45.340;5.980;2023-06-10T04:43:17;10.48;;;6.88;;
64712;SDS011;51140;45.340;5.980;2023-06-10T04:45:42;15.77;;;6.80;;
64712;SDS011;51140;45.340;5.980;2023-06-10T04:48:10;14.00;;;6.75;;
64712;SDS011;51140;45.340;5.980;2023-06-10T04:50:36;12.20;;;6.53;;
64712;SDS011;51140;45.340;5.980;2023-06-10T04:53:02;10.13;;;5.65;;
64712;SDS011;51140;45.340;5.980;2023-06-10T04:55:27;10.15;;;5.55;;
64712;SDS011;51140;45.340;5.980;2023-06-10T04:57:53;11.30;;;5.97;;
64712;SDS011;51140;45.340;5.980;2023-06-10T05:00:18;11.32;;;5.93;;
64712;SDS011;51140;45.340;5.980;2023-06-10T05:02:43;11.63;;;6.40;;
64712;SDS011;51140;45.340;5.980;2023-06-10T05:05:10;10.73;;;5.97;;
64712;SDS011;51140;45.340;5.980;2023-06-10T05:07:36;9.43;;;5.78;;
64712;SDS011;51140;45.340;5.980;2023-06-10T05:10:01;8.77;;;5.47;;
64712;SDS011;51140;45.340;5.980;2023-06-10T05:12:28;10.40;;;5.25;;
64712;SDS011;51140;45.340;5.980;2023-06-10T05:14:53;12.63;;;6.13;;
64712;SDS011;51140;45.340;5.980;2023-06-10T05:17:18;9.93;;;5.75;;
64712;SDS011;51140;45.340;5.980;2023-06-10T05:19:44;10.50;;;5.55;;
64712;SDS011;51140;45.340;5.980;2023-06-10T05:22:09;12.18;;;6.07;;
64712;SDS011;51140;45.340;5.980;2023-06-10T05:24:34;9.80;;;5.32;;
64712;SDS011;51140;45.340;5.980;2023-06-10T05:27:00;10.07;;;5.55;;
64712;SDS011;51140;45.340;5.980;2023-06-10T05:29:25;10.98;;;6.18;;
64712;SDS011;51140;45.340;5.980;2023-06-10T05:31:51;9.27;;;6.18;;
64712;SDS011;51140;45.340;5.980;2023-06-10T05:34:16;10.93;;;5.78;;
64712;SDS011;51140;45.340;5.980;2023-06-10T05:36:42;9.95;;;5.95;;
64712;SDS011;51140;45.340;5.980;2023-06-10T05:39:08;9.52;;;5.72;;
64712;SDS011;51140;45.340;5.980;2023-06-10T05:41:34;13.15;;;6.07;;
64712;SDS011;51140;45.340;5.980;2023-06-10T05:43:59;8.88;;;5.65;;
64712;SDS011;51140;45.340;5.980;2023-06-10T05:46:25;11.30;;;6.38;;
64712;SDS011;51140;45.340;5.980;2023-06-10T05:48:50;9.07;;;5.70;;
64712;SDS011;51140;45.340;5.980;2023-06-10T05:51:15;13.77;;;5.95;;
64712;SDS011;51140;45.340;5.980;2023-06-10T05:53:41;9.27;;;5.80;;
64712;SDS011;51140;45.340;5.980;2023-06-10T05:56:06;9.18;;;5.55;;
64712;SDS011;51140;45.340;5.980;2023-06-10T05:58:32;11.43;;;6.10;;
64712;SDS011;51140;45.340;5.980;2023-06-10T06:00:57;9.70;;;5.65;;
64712;SDS011;51140;45.340;5.980;2023-06-10T06:03:23;10.77;;;6.03;;
64712;SDS011;51140;45.340;5.980;2023-06-10T06:05:48;11.13;;;5.70;;
64712;SDS011;51140;45.340;5.980;2023-06-10T06:08:13;11.20;;;5.97;;
64712;SDS011;51140;45.340;5.980;2023-06-10T06:10:42;8.88;;;4.97;;
64712;SDS011;51140;45.340;5.980;2023-06-10T06:13:07;8.27;;;5.05;;
64712;SDS011;51140;45.340;5.980;2023-06-10T06:15:33;8.27;;;5.05;;
64712;SDS011;51140;45.340;5.980;2023-06-10T06:17:58;8.48;;;5.30;;
64712;SDS011;51140;45.340;5.980;2023-06-10T06:20:23;10.18;;;5.22;;
64712;SDS011;51140;45.340;5.980;2023-06-10T06:22:49;9.18;;;5.43;;
64712;SDS011;51140;45.340;5.980;2023-06-10T06:25:14;8.93;;;5.50;;
64712;SDS011;51140;45.340;5.980;2023-06-10T06:27:40;11.68;;;6.25;;
64712;SDS011;51140;45.340;5.980;2023-06-10T06:30:06;9.80;;;5.45;;
64712;SDS011;51140;45.340;5.980;2023-06-10T06:32:33;10.90;;;5.63;;
64712;SDS011;51140;45.340;5.980;2023-06-10T06:34:58;10.55;;;5.68;;
64712;SDS011;51140;45.340;5.980;2023-06-10T06:37:24;9.85;;;6.00;;
64712;SDS011;51140;45.340;5.980;2023-06-10T06:39:50;10.00;;;5.65;;
64712;SDS011;51140;45.340;5.980;2023-06-10T06:42:17;9.23;;;6.30;;
64712;SDS011;51140;45.340;5.980;2023-06-10T06:44:42;8.95;;;6.43;;
64712;SDS011;51140;45.340;5.980;2023-06-10T06:47:08;12.43;;;6.57;;
64712;SDS011;51140;45.340;5.980;2023-06-10T06:49:34;13.00;;;6.70;;
64712;SDS011;51140;45.340;5.980;2023-06-10T06:51:59;11.05;;;6.97;;
64712;SDS011;51140;45.340;5.980;2023-06-10T06:54:24;9.43;;;6.25;;
64712;SDS011;51140;45.340;5.980;2023-06-10T06:56:50;13.35;;;5.80;;
64712;SDS011;51140;45.340;5.980;2023-06-10T06:59:15;10.82;;;6.18;;
64712;SDS011;51140;45.340;5.980;2023-06-10T07:01:42;11.57;;;5.95;;
64712;SDS011;51140;45.340;5.980;2023-06-10T07:04:07;10.50;;;5.57;;
64712;SDS011;51140;45.340;5.980;2023-06-10T07:06:33;8.85;;;5.70;;
64712;SDS011;51140;45.340;5.980;2023-06-10T07:08:58;12.55;;;6.07;;
64712;SDS011;51140;45.340;5.980;2023-06-10T07:11:23;7.95;;;4.85;;
64712;SDS011;51140;45.340;5.980;2023-06-10T07:13:50;10.80;;;5.20;;
64712;SDS011;51140;45.340;5.980;2023-06-10T07:16:15;8.85;;;4.63;;
64712;SDS011;51140;45.340;5.980;2023-06-10T07:18:41;11.40;;;5.60;;
64712;SDS011;51140;45.340;5.980;2023-06-10T07:21:06;9.40;;;5.20;;
64712;SDS011;51140;45.340;5.980;2023-06-10T07:23:31;9.27;;;5.13;;
64712;SDS011;51140;45.340;5.980;2023-06-10T07:25:57;8.68;;;5.25;;
64712;SDS011;51140;45.340;5.980;2023-06-10T07:28:22;9.80;;;5.13;;
64712;SDS011;51140;45.340;5.980;2023-06-10T07:30:47;8.98;;;5.30;;
64712;SDS011;51140;45.340;5.980;2023-06-10T07:33:13;9.63;;;6.05;;
64712;SDS011;51140;45.340;5.980;2023-06-10T07:35:38;9.32;;;6.20;;
64712;SDS011;51140;45.340;5.980;2023-06-10T07:38:03;9.50;;;5.65;;
64712;SDS011;51140;45.340;5.980;2023-06-10T07:40:29;8.98;;;6.13;;
64712;SDS011;51140;45.340;5.980;2023-06-10T07:42:54;9.75;;;5.95;;
64712;SDS011;51140;45.340;5.980;2023-06-10T07:45:20;12.35;;;6.28;;
64712;SDS011;51140;45.340;5.980;2023-06-10T07:47:45;10.30;;;6.82;;
64712;SDS011;51140;45.340;5.980;2023-06-10T07:50:11;11.38;;;6.40;;
64712;SDS011;51140;45.340;5.980;2023-06-10T07:52:36;11.70;;;6.32;;
64712;SDS011;51140;45.340;5.980;2023-06-10T07:55:03;9.88;;;6.13;;
64712;SDS011;51140;45.340;5.980;2023-06-10T07:57:29;10.20;;;5.78;;
64712;SDS011;51140;45.340;5.980;2023-06-10T07:59:56;11.98;;;5.97;;
64712;SDS011;51140;45.340;5.980;2023-06-10T08:02:22;9.10;;;6.32;;
64712;SDS011;51140;45.340;5.980;2023-06-10T08:04:48;9.95;;;6.32;;
64712;SDS011;51140;45.340;5.980;2023-06-10T08:07:13;10.68;;;6.20;;
64712;SDS011;51140;45.340;5.980;2023-06-10T08:09:38;11.35;;;6.57;;
64712;SDS011;51140;45.340;5.980;2023-06-10T08:12:04;8.90;;;5.68;;
64712;SDS011;51140;45.340;5.980;2023-06-10T08:14:30;8.90;;;5.93;;
64712;SDS011;51140;45.340;5.980;2023-06-10T08:16:55;10.23;;;5.45;;
64712;SDS011;51140;45.340;5.980;2023-06-10T08:19:21;11.98;;;5.75;;
64712;SDS011;51140;45.340;5.980;2023-06-10T08:21:46;11.15;;;5.90;;
64712;SDS011;51140;45.340;5.980;2023-06-10T08:24:12;8.32;;;5.47;;
64712;SDS011;51140;45.340;5.980;2023-06-10T08:26:38;8.80;;;5.60;;
64712;SDS011;51140;45.340;5.980;2023-06-10T08:29:04;8.52;;;5.35;;
64712;SDS011;51140;45.340;5.980;2023-06-10T08:31:29;7.15;;;4.97;;
64712;SDS011;51140;45.340;5.980;2023-06-10T08:33:55;9.57;;;5.20;;
64712;SDS011;51140;45.340;5.980;2023-06-10T08:36:20;8.68;;;4.68;;
64712;SDS011;51140;45.340;5.980;2023-06-10T08:38:46;8.30;;;5.43;;
64712;SDS011;51140;45.340;5.980;2023-06-10T08:41:12;8.82;;;5.03;;
64712;SDS011;51140;45.340;5.980;2023-06-10T08:43:43;9.45;;;5.22;;
64712;SDS011;51140;45.340;5.980;2023-06-10T08:46:13;9.32;;;5.75;;
64712;SDS011;51140;45.340;5.980;2023-06-10T08:48:41;9.77;;;5.07;;
64712;SDS011;51140;45.340;5.980;2023-06-10T08:51:09;10.93;;;4.95;;
64712;SDS011;51140;45.340;5.980;2023-06-10T08:53:36;11.98;;;5.57;;
64712;SDS011;51140;45.340;5.980;2023-06-10T08:56:03;7.90;;;5.03;;
64712;SDS011;51140;45.340;5.980;2023-06-10T08:58:31;13.20;;;5.63;;
64712;SDS011;51140;45.340;5.980;2023-06-10T09:00:58;10.73;;;5.68;;
64712;SDS011;51140;45.340;5.980;2023-06-10T09:03:24;8.60;;;5.13;;
64712;SDS011;51140;45.340;5.980;2023-06-10T09:05:50;9.52;;;6.25;;
64712;SDS011;51140;45.340;5.980;2023-06-10T09:08:16;11.57;;;5.50;;
64712;SDS011;51140;45.340;5.980;2023-06-10T09:10:42;16.85;;;7.78;;
64712;SDS011;51140;45.340;5.980;2023-06-10T09:13:07;8.60;;;5.32;;
64712;SDS011;51140;45.340;5.980;2023-06-10T09:15:33;10.63;;;6.07;;
64712;SDS011;51140;45.340;5.980;2023-06-10T09:17:58;19.08;;;7.53;;
64712;SDS011;51140;45.340;5.980;2023-06-10T09:20:24;12.45;;;6.18;;
64712;SDS011;51140;45.340;5.980;2023-06-10T09:22:50;14.00;;;7.22;;
64712;SDS011;51140;45.340;5.980;2023-06-10T09:25:16;12.80;;;6.40;;
64712;SDS011;51140;45.340;5.980;2023-06-10T09:27:45;10.02;;;6.20;;
64712;SDS011;51140;45.340;5.980;2023-06-10T09:32:58;10.90;;;6.20;;
64712;SDS011;51140;45.340;5.980;2023-06-10T09:35:25;7.10;;;4.45;;
64712;SDS011;51140;45.340;5.980;2023-06-10T09:37:51;9.98;;;4.80;;
64712;SDS011;51140;45.340;5.980;2023-06-10T09:40:21;7.00;;;4.03;;
64712;SDS011;51140;45.340;5.980;2023-06-10T09:42:47;8.65;;;5.43;;
64712;SDS011;51140;45.340;5.980;2023-06-10T09:45:19;9.55;;;5.30;;
64712;SDS011;51140;45.340;5.980;2023-06-10T09:47:46;9.50;;;5.05;;
64712;SDS011;51140;45.340;5.980;2023-06-10T09:50:12;11.65;;;5.35;;
64712;SDS011;51140;45.340;5.980;2023-06-10T09:52:37;8.10;;;5.22;;
64712;SDS011;51140;45.340;5.980;2023-06-10T09:55:03;9.70;;;4.88;;
64712;SDS011;51140;45.340;5.980;2023-06-10T09:57:32;9.02;;;4.95;;
64712;SDS011;51140;45.340;5.980;2023-06-10T10:00:19;10.32;;;4.80;;
64712;SDS011;51140;45.340;5.980;2023-06-10T10:02:45;8.67;;;4.50;;
64712;SDS011;51140;45.340;5.980;2023-06-10T10:05:13;8.63;;;3.90;;
64712;SDS011;51140;45.340;5.980;2023-06-10T10:07:40;7.70;;;4.28;;
64712;SDS011;51140;45.340;5.980;2023-06-10T10:10:06;7.35;;;4.13;;
64712;SDS011;51140;45.340;5.980;2023-06-10T10:12:33;7.72;;;4.00;;
64712;SDS011;51140;45.340;5.980;2023-06-10T10:14:59;8.07;;;4.45;;
64712;SDS011;51140;45.340;5.980;2023-06-10T10:17:25;8.52;;;4.30;;
64712;SDS011;51140;45.340;5.980;2023-06-10T10:19:57;7.80;;;4.65;;
64712;SDS011;51140;45.340;5.980;2023-06-10T10:22:31;7.93;;;4.53;;
64712;SDS011;51140;45.340;5.980;2023-06-10T10:25:02;10.27;;;4.90;;
64712;SDS011;51140;45.340;5.980;2023-06-10T10:27:44;9.05;;;5.32;;
64712;SDS011;51140;45.340;5.980;2023-06-10T10:30:16;8.25;;;4.75;;
64712;SDS011;51140;45.340;5.980;2023-06-10T10:32:48;7.75;;;4.70;;
64712;SDS011;51140;45.340;5.980;2023-06-10T10:35:23;7.78;;;4.53;;
64712;SDS011;51140;45.340;5.980;2023-06-10T10:37:53;8.73;;;5.10;;
64712;SDS011;51140;45.340;5.980;2023-06-10T10:40:23;8.82;;;4.20;;
64712;SDS011;51140;45.340;5.980;2023-06-10T10:42:50;8.70;;;4.05;;
64712;SDS011;51140;45.340;5.980;2023-06-10T10:45:16;6.40;;;3.95;;
64712;SDS011;51140;45.340;5.980;2023-06-10T10:47:45;8.18;;;4.05;;
64712;SDS011;51140;45.340;5.980;2023-06-10T10:50:15;7.50;;;4.57;;
64712;SDS011;51140;45.340;5.980;2023-06-10T10:55:20;8.43;;;5.35;;
64712;SDS011;51140;45.340;5.980;2023-06-10T10:57:53;34.03;;;23.67;;
64712;SDS011;51140;45.340;5.980;2023-06-10T11:00:29;21.92;;;13.45;;
64712;SDS011;51140;45.340;5.980;2023-06-10T11:02:58;10.93;;;6.72;;
64712;SDS011;51140;45.340;5.980;2023-06-10T11:08:03;8.35;;;4.55;;
64712;SDS011;51140;45.340;5.980;2023-06-10T11:10:30;8.43;;;3.38;;
64712;SDS011;51140;45.340;5.980;2023-06-10T11:13:05;7.85;;;3.58;;
64712;SDS011;51140;45.340;5.980;2023-06-10T11:15:43;7.97;;;3.22;;
64712;SDS011;51140;45.340;5.980;2023-06-10T11:18:19;9.77;;;3.33;;
64712;SDS011;51140;45.340;5.980;2023-06-10T11:20:51;7.18;;;3.63;;
64712;SDS011;51140;45.340;5.980;2023-06-10T11:32:02;6.75;;;3.17;;
64712;SDS011;51140;45.340;5.980;2023-06-10T11:34:10;5.72;;;2.70;;
64712;SDS011;51140;45.340;5.980;2023-06-10T11:36:40;7.28;;;3.00;;
64712;SDS011;51140;45.340;5.980;2023-06-10T11:39:07;5.20;;;2.70;;
64712;SDS011;51140;45.340;5.980;2023-06-10T11:41:34;6.22;;;2.67;;
64712;SDS011;51140;45.340;5.980;2023-06-10T11:44:02;6.13;;;2.90;;
64712;SDS011;51140;45.340;5.980;2023-06-10T11:46:38;6.57;;;3.00;;
64712;SDS011;51140;45.340;5.980;2023-06-10T11:49:04;10.50;;;3.33;;
64712;SDS011;51140;45.340;5.980;2023-06-10T11:51:40;7.53;;;3.30;;
64712;SDS011;51140;45.340;5.980;2023-06-10T11:54:09;6.80;;;2.92;;
64712;SDS011;51140;45.340;5.980;2023-06-10T11:56:34;8.35;;;3.17;;
64712;SDS011;51140;45.340;5.980;2023-06-10T11:59:00;6.07;;;2.50;;
64712;SDS011;51140;45.340;5.980;2023-06-10T12:01:32;7.43;;;2.67;;
64712;SDS011;51140;45.340;5.980;2023-06-10T12:04:06;7.22;;;2.78;;
64712;SDS011;51140;45.340;5.980;2023-06-10T12:11:43;5.72;;;2.25;;
64712;SDS011;51140;45.340;5.980;2023-06-10T12:14:09;4.22;;;1.90;;
64712;SDS011;51140;45.340;5.980;2023-06-10T12:16:35;6.47;;;2.33;;
64712;SDS011;51140;45.340;5.980;2023-06-10T12:19:04;5.05;;;1.73;;
64712;SDS011;51140;45.340;5.980;2023-06-10T12:21:32;4.07;;;1.77;;
64712;SDS011;51140;45.340;5.980;2023-06-10T12:24:05;7.07;;;1.98;;
64712;SDS011;51140;45.340;5.980;2023-06-10T12:26:39;4.68;;;1.73;;
64712;SDS011;51140;45.340;5.980;2023-06-10T12:29:27;6.82;;;2.00;;
64712;SDS011;51140;45.340;5.980;2023-06-10T12:34:27;5.03;;;2.40;;
64712;SDS011;51140;45.340;5.980;2023-06-10T12:37:03;6.53;;;2.25;;
64712;SDS011;51140;45.340;5.980;2023-06-10T12:39:31;5.20;;;2.35;;
64712;SDS011;51140;45.340;5.980;2023-06-10T12:42:00;6.03;;;2.38;;
64712;SDS011;51140;45.340;5.980;2023-06-10T12:44:32;6.38;;;2.25;;
64712;SDS011;51140;45.340;5.980;2023-06-10T12:46:59;5.35;;;2.17;;
64712;SDS011;51140;45.340;5.980;2023-06-10T12:49:26;6.57;;;2.22;;
64712;SDS011;51140;45.340;5.980;2023-06-10T12:51:51;7.57;;;2.60;;
64712;SDS011;51140;45.340;5.980;2023-06-10T12:54:17;6.13;;;2.42;;
64712;SDS011;51140;45.340;5.980;2023-06-10T12:56:42;5.25;;;2.50;;
64712;SDS011;51140;45.340;5.980;2023-06-10T12:59:08;5.68;;;2.38;;
64712;SDS011;51140;45.340;5.980;2023-06-10T13:01:33;6.40;;;2.47;;
64712;SDS011;51140;45.340;5.980;2023-06-10T13:03:59;6.10;;;2.50;;
64712;SDS011;51140;45.340;5.980;2023-06-10T13:06:25;5.07;;;2.58;;
64712;SDS011;51140;45.340;5.980;2023-06-10T13:08:50;5.50;;;2.65;;
64712;SDS011;51140;45.340;5.980;2023-06-10T13:11:16;6.82;;;2.50;;
64712;SDS011;51140;45.340;5.980;2023-06-10T13:13:41;4.85;;;2.40;;
64712;SDS011;51140;45.340;5.980;2023-06-10T13:16:07;9.73;;;3.00;;
64712;SDS011;51140;45.340;5.980;2023-06-10T13:18:33;4.85;;;2.30;;
64712;SDS011;51140;45.340;5.980;2023-06-10T13:21:05;6.50;;;2.70;;
64712;SDS011;51140;45.340;5.980;2023-06-10T13:23:31;5.65;;;2.50;;
64712;SDS011;51140;45.340;5.980;2023-06-10T13:25:56;4.70;;;2.20;;
64712;SDS011;51140;45.340;5.980;2023-06-10T13:28:22;6.22;;;2.42;;
64712;SDS011;51140;45.340;5.980;2023-06-10T13:30:47;6.50;;;2.17;;
64712;SDS011;51140;45.340;5.980;2023-06-10T13:33:13;7.40;;;1.95;;
64712;SDS011;51140;45.340;5.980;2023-06-10T13:35:38;3.95;;;1.70;;
64712;SDS011;51140;45.340;5.980;2023-06-10T13:38:03;4.07;;;1.50;;
64712;SDS011;51140;45.340;5.980;2023-06-10T13:40:29;7.78;;;2.13;;
64712;SDS011;51140;45.340;5.980;2023-06-10T13:42:54;5.10;;;2.00;;
64712;SDS011;51140;45.340;5.980;2023-06-10T13:45:20;4.97;;;1.90;;
64712;SDS011;51140;45.340;5.980;2023-06-10T13:47:46;5.05;;;2.00;;
64712;SDS011;51140;45.340;5.980;2023-06-10T13:50:14;5.15;;;1.88;;
64712;SDS011;51140;45.340;5.980;2023-06-10T13:52:40;7.47;;;2.10;;
64712;SDS011;51140;45.340;5.980;2023-06-10T13:55:05;5.57;;;2.20;;
64712;SDS011;51140;45.340;5.980;2023-06-10T13:57:30;5.15;;;1.90;;
64712;SDS011;51140;45.340;5.980;2023-06-10T13:59:56;3.47;;;1.45;;
64712;SDS011;51140;45.340;5.980;2023-06-10T14:02:21;4.93;;;1.70;;
64712;SDS011;51140;45.340;5.980;2023-06-10T14:04:47;3.83;;;1.60;;
64712;SDS011;51140;45.340;5.980;2023-06-10T14:07:12;4.75;;;1.80;;
64712;SDS011;51140;45.340;5.980;2023-06-10T14:09:38;4.43;;;1.67;;
64712;SDS011;51140;45.340;5.980;2023-06-10T14:12:03;5.15;;;1.63;;
64712;SDS011;51140;45.340;5.980;2023-06-10T14:14:29;3.85;;;1.50;;
64712;SDS011;51140;45.340;5.980;2023-06-10T14:16:56;3.88;;;1.55;;
64712;SDS011;51140;45.340;5.980;2023-06-10T14:19:21;8.00;;;2.20;;
64712;SDS011;51140;45.340;5.980;2023-06-10T14:21:47;4.13;;;1.73;;
64712;SDS011;51140;45.340;5.980;2023-06-10T14:24:12;3.80;;;1.70;;
64712;SDS011;51140;45.340;5.980;2023-06-10T14:26:38;3.53;;;1.52;;
64712;SDS011;51140;45.340;5.980;2023-06-10T14:29:03;6.72;;;2.10;;
64712;SDS011;51140;45.340;5.980;2023-06-10T14:31:29;7.03;;;2.00;;
64712;SDS011;51140;45.340;5.980;2023-06-10T14:33:54;4.03;;;1.77;;
64712;SDS011;51140;45.340;5.980;2023-06-10T14:36:19;5.07;;;2.30;;
64712;SDS011;51140;45.340;5.980;2023-06-10T14:38:45;6.60;;;2.00;;
64712;SDS011;51140;45.340;5.980;2023-06-10T14:41:11;5.03;;;2.30;;
64712;SDS011;51140;45.340;5.980;2023-06-10T14:43:36;6.85;;;2.53;;
64712;SDS011;51140;45.340;5.980;2023-06-10T14:46:02;5.50;;;2.05;;
64712;SDS011;51140;45.340;5.980;2023-06-10T14:48:27;5.97;;;2.60;;
64712;SDS011;51140;45.340;5.980;2023-06-10T14:50:52;5.47;;;2.28;;
64712;SDS011;51140;45.340;5.980;2023-06-10T14:53:20;6.45;;;2.15;;
64712;SDS011;51140;45.340;5.980;2023-06-10T14:55:45;5.13;;;1.85;;
64712;SDS011;51140;45.340;5.980;2023-06-10T14:58:11;6.72;;;2.10;;
64712;SDS011;51140;45.340;5.980;2023-06-10T15:00:36;5.60;;;2.00;;
64712;SDS011;51140;45.340;5.980;2023-06-10T15:03:01;7.10;;;2.03;;
64712;SDS011;51140;45.340;5.980;2023-06-10T15:05:27;5.55;;;1.77;;
64712;SDS011;51140;45.340;5.980;2023-06-10T15:07:53;4.72;;;1.63;;
64712;SDS011;51140;45.340;5.980;2023-06-10T15:10:18;5.68;;;2.20;;
64712;SDS011;51140;45.340;5.980;2023-06-10T15:12:46;5.38;;;2.20;;